Time;durP1;ratioP1;P1;durP2;ratioP2;P2;SDS_P1;SDS_P2;PMS_P1;PMS_P2;Temp;Humidity;BMP_temperature;BMP_pressure;BME280_temperature;BME280_humidity;BME280_pressure;Samples;Min_cycle;Max_cycle;Signal;HPM_P1;HPM_P2
2022/03/25 00:01:38;;;;;;;;;;;13.50;49.60;;;;;;5052188;28;19916;-64
2022/03/25 00:04:04;;;;;;;;;;;13.50;49.50;;;;;;5051110;28;20370;-63
2022/03/25 00:06:30;;;;;;;;;;;13.40;49.70;;;;;;5051825;28;19946;-63
2022/03/25 00:08:55;;;;;;;;;;;13.30;49.80;;;;;;5051465;28;20385;-62
2022/03/25 00:11:24;;;;;;;;;;;13.40;49.50;;;;;;5051142;28;19995;-62
2022/03/25 00:13:49;;;;;;;;;;;13.40;49.40;;;;;;5049615;28;19909;-62
2022/03/25 00:16:15;;;;;;;;;;;13.40;49.90;;;;;;5051212;28;19923;-61
2022/03/25 00:18:40;;;;;;;;;;;13.40;49.50;;;;;;5051027;28;19916;-63
2022/03/25 00:21:06;;;;;;;;;;;13.30;49.40;;;;;;5051590;28;19943;-61
2022/03/25 00:23:31;;;;;;;;;;;13.30;49.40;;;;;;5049670;28;20448;-60
2022/03/25 00:25:57;;;;;;;;;;;13.30;49.40;;;;;;5051891;28;19909;-61
2022/03/25 00:28:23;;;;;;;;;;;13.40;49.30;;;;;;5051091;28;19917;-60
2022/03/25 00:30:50;;;;;;;;;;;13.30;49.50;;;;;;5050853;28;19935;-61
2022/03/25 00:33:16;;;;;;;;;;;13.30;49.30;;;;;;5050837;28;19920;-63
2022/03/25 00:35:42;;;;;;;;;;;13.30;49.30;;;;;;5051107;28;19912;-61
2022/03/25 00:38:07;;;;;;;;;;;13.30;49.40;;;;;;5051595;28;20290;-62
2022/03/25 00:40:33;;;;;;;;;;;13.30;49.50;;;;;;5050655;28;19913;-62
2022/03/25 00:42:58;;;;;;;;;;;13.30;49.40;;;;;;5050071;28;20407;-62
2022/03/25 00:45:24;;;;;;;;;;;13.30;49.40;;;;;;5050798;28;19921;-61
2022/03/25 00:47:49;;;;;;;;;;;13.30;49.20;;;;;;5050651;28;19913;-61
2022/03/25 00:50:16;;;;;;;;;;;13.30;49.20;;;;;;5049904;28;19912;-63
2022/03/25 00:52:42;;;;;;;;;;;13.30;49.20;;;;;;5050013;28;19909;-63
2022/03/25 00:55:08;;;;;;;;;;;13.30;49.40;;;;;;5050326;28;20210;-61
2022/03/25 00:57:33;;;;;;;;;;;13.30;49.10;;;;;;5050193;28;19927;-62
2022/03/25 00:59:59;;;;;;;;;;;13.30;49.20;;;;;;5049184;28;19913;-61
2022/03/25 01:02:24;;;;;;;;;;;13.20;49.40;;;;;;5050613;28;19909;-62
2022/03/25 01:04:50;;;;;;;;;;;13.20;49.60;;;;;;5051484;28;19986;-61
2022/03/25 01:07:17;;;;;;;;;;;13.10;49.70;;;;;;5050653;28;20004;-64
2022/03/25 01:09:43;;;;;;;;;;;13.10;50.00;;;;;;5050089;28;20321;-62
2022/03/25 01:12:09;;;;;;;;;;;13.10;49.90;;;;;;5050025;28;20003;-62
2022/03/25 01:14:34;;;;;;;;;;;13.10;50.00;;;;;;5049802;28;19913;-61
2022/03/25 01:17:00;;;;;;;;;;;13.10;49.90;;;;;;5050782;28;20344;-63
2022/03/25 01:19:27;;;;;;;;;;;13.00;50.00;;;;;;5050039;28;19924;-62
2022/03/25 01:21:54;;;;;;;;;;;13.00;50.10;;;;;;5049247;28;20421;-63
2022/03/25 01:24:20;;;;;;;;;;;13.00;50.20;;;;;;5050165;28;19940;-62
2022/03/25 01:26:45;;;;;;;;;;;12.90;50.50;;;;;;5049647;28;19924;-62
2022/03/25 01:29:12;;;;;;;;;;;12.90;50.40;;;;;;5050829;28;19909;-62
2022/03/25 01:31:37;;;;;;;;;;;12.90;50.40;;;;;;5049904;28;20373;-62
2022/03/25 01:34:03;;;;;;;;;;;12.90;50.40;;;;;;5049740;28;20011;-62
2022/03/25 01:36:30;;;;;;;;;;;12.90;50.60;;;;;;5050415;28;19939;-61
2022/03/25 01:38:56;;;;;;;;;;;12.80;51.10;;;;;;5050490;28;19924;-63
2022/03/25 01:41:22;;;;;;;;;;;12.80;51.00;;;;;;5050048;28;19913;-61
2022/03/25 01:43:55;;;;;;;;;;;12.70;51.00;;;;;;5050619;28;19916;-61
2022/03/25 01:46:21;;;;;;;;;;;12.80;51.40;;;;;;5049771;28;19963;-63
2022/03/25 01:48:47;;;;;;;;;;;12.70;51.00;;;;;;5049888;28;20346;-63
2022/03/25 01:51:39;;;;;;;;;;;12.70;51.40;;;;;;5050825;28;19940;-63
2022/03/25 01:54:10;;;;;;;;;;;12.70;51.60;;;;;;5049966;28;19913;-62
2022/03/25 01:56:36;;;;;;;;;;;12.60;51.10;;;;;;5049385;28;19928;-60
2022/03/25 01:59:01;;;;;;;;;;;12.60;51.70;;;;;;5050561;28;19908;-62
2022/03/25 02:01:27;;;;;;;;;;;12.50;51.40;;;;;;5049569;28;20377;-64
2022/03/25 02:03:53;;;;;;;;;;;12.40;51.40;;;;;;5082442;28;19920;-62
2022/03/25 02:06:19;;;;;;;;;;;12.50;51.40;;;;;;5050244;28;20279;-63
2022/03/25 02:08:44;;;;;;;;;;;12.40;51.70;;;;;;5049542;28;20415;-61
2022/03/25 02:11:11;;;;;;;;;;;12.40;51.90;;;;;;5050003;28;19908;-62
2022/03/25 02:13:36;;;;;;;;;;;12.40;51.90;;;;;;5050421;28;19944;-62
2022/03/25 02:16:02;;;;;;;;;;;12.30;51.90;;;;;;5049917;28;20009;-62
2022/03/25 02:18:28;;;;;;;;;;;12.30;52.60;;;;;;5049602;28;19920;-63
2022/03/25 02:20:53;;;;;;;;;;;12.30;52.60;;;;;;5049555;28;19928;-62
2022/03/25 02:23:19;;;;;;;;;;;12.30;52.60;;;;;;5049750;28;19913;-63
2022/03/25 02:25:48;;;;;;;;;;;12.30;52.70;;;;;;5050438;28;20012;-62
2022/03/25 02:28:13;;;;;;;;;;;12.20;52.50;;;;;;5052895;28;19916;-60
2022/03/25 02:30:39;;;;;;;;;;;12.10;52.80;;;;;;5052627;28;20385;-61
2022/03/25 02:33:05;;;;;;;;;;;12.10;52.70;;;;;;5053560;28;19927;-61
2022/03/25 02:35:44;;;;;;;;;;;12.10;53.10;;;;;;5053031;28;19927;-61
2022/03/25 02:38:11;;;;;;;;;;;12.00;52.90;;;;;;5049191;28;19915;-62
2022/03/25 02:40:37;;;;;;;;;;;12.00;52.70;;;;;;5052653;28;19920;-61
2022/03/25 02:43:03;;;;;;;;;;;12.00;53.20;;;;;;5052837;28;19913;-61
2022/03/25 02:45:29;;;;;;;;;;;12.00;52.80;;;;;;5053125;28;19927;-62
2022/03/25 02:47:54;;;;;;;;;;;11.90;53.20;;;;;;5053281;28;19915;-63
2022/03/25 02:50:20;;;;;;;;;;;11.90;53.20;;;;;;5052445;28;19927;-61
2022/03/25 02:52:47;;;;;;;;;;;11.90;53.20;;;;;;5053215;28;20404;-63
2022/03/25 02:55:12;;;;;;;;;;;11.90;53.30;;;;;;5052498;28;19991;-62
2022/03/25 02:57:38;;;;;;;;;;;11.80;53.50;;;;;;5052635;28;19967;-60
2022/03/25 03:00:07;;;;;;;;;;;11.80;54.00;;;;;;5053005;28;19959;-61
2022/03/25 03:02:34;;;;;;;;;;;11.70;53.70;;;;;;5052693;28;20309;-62
2022/03/25 03:04:59;;;;;;;;;;;11.70;53.60;;;;;;5053311;28;19963;-63
2022/03/25 03:07:25;;;;;;;;;;;11.60;53.80;;;;;;5054040;28;19964;-61
2022/03/25 03:09:50;;;;;;;;;;;11.60;54.00;;;;;;5052151;28;19934;-62
2022/03/25 03:12:16;;;;;;;;;;;11.60;54.20;;;;;;5052467;28;19913;-62
2022/03/25 03:14:41;;;;;;;;;;;11.60;54.00;;;;;;5052613;28;20386;-63
2022/03/25 03:17:08;;;;;;;;;;;11.50;54.40;;;;;;5053930;28;20285;-62
2022/03/25 03:19:34;;;;;;;;;;;11.50;55.00;;;;;;5052236;28;20003;-63
2022/03/25 03:22:00;;;;;;;;;;;11.40;54.80;;;;;;5052337;28;19959;-62
2022/03/25 03:24:26;;;;;;;;;;;11.50;55.20;;;;;;5051748;28;19928;-62
2022/03/25 03:26:52;;;;;;;;;;;11.30;54.80;;;;;;5052429;28;19913;-61
2022/03/25 03:29:18;;;;;;;;;;;11.30;55.00;;;;;;5052612;28;19963;-63
2022/03/25 03:31:43;;;;;;;;;;;11.30;54.90;;;;;;5052823;28;19909;-61
2022/03/25 03:34:09;;;;;;;;;;;11.30;55.00;;;;;;5052267;28;19966;-63
2022/03/25 03:36:34;;;;;;;;;;;11.30;55.40;;;;;;5051556;28;19931;-61
2022/03/25 03:39:00;;;;;;;;;;;11.20;55.40;;;;;;5051881;28;19952;-63
2022/03/25 03:41:27;;;;;;;;;;;11.20;55.80;;;;;;5051669;28;19999;-63
2022/03/25 03:43:52;;;;;;;;;;;11.10;55.90;;;;;;5052627;28;19913;-61
2022/03/25 03:46:18;;;;;;;;;;;11.20;55.30;;;;;;5051572;28;19913;-62
2022/03/25 03:48:44;;;;;;;;;;;11.20;55.70;;;;;;5052054;28;20027;-62
2022/03/25 03:51:10;;;;;;;;;;;11.20;55.40;;;;;;5051431;28;20426;-62
2022/03/25 03:53:35;;;;;;;;;;;11.20;55.50;;;;;;5052058;28;19912;-61
2022/03/25 03:56:01;;;;;;;;;;;11.10;55.80;;;;;;5050811;28;20016;-60
2022/03/25 03:58:26;;;;;;;;;;;11.10;56.00;;;;;;5051720;28;19982;-62
2022/03/25 04:00:52;;;;;;;;;;;11.20;56.10;;;;;;5051572;28;19982;-61
2022/03/25 04:03:17;;;;;;;;;;;11.10;55.60;;;;;;5051584;28;19920;-63
2022/03/25 04:05:44;;;;;;;;;;;11.10;55.70;;;;;;5050861;28;20047;-61
2022/03/25 04:08:09;;;;;;;;;;;11.10;55.50;;;;;;5052234;28;20438;-60
2022/03/25 04:10:35;;;;;;;;;;;11.10;55.80;;;;;;5051452;28;19917;-61
2022/03/25 04:13:00;;;;;;;;;;;11.00;56.60;;;;;;5051210;28;19913;-61
2022/03/25 04:15:27;;;;;;;;;;;11.00;56.20;;;;;;5051145;28;20309;-60
2022/03/25 04:17:52;;;;;;;;;;;11.00;55.80;;;;;;5051567;28;19920;-63
2022/03/25 04:20:18;;;;;;;;;;;11.00;56.10;;;;;;5050949;28;19913;-62
2022/03/25 04:22:44;;;;;;;;;;;11.00;55.90;;;;;;5051609;28;19909;-60
2022/03/25 04:27:46;;;;;;;;;;;10.80;56.30;;;;;;5664630;22;19979;-63
2022/03/25 04:30:12;;;;;;;;;;;10.80;56.60;;;;;;5112827;22;19925;-59
2022/03/25 04:32:37;;;;;;;;;;;10.90;56.60;;;;;;5047868;28;20122;-64
2022/03/25 04:35:03;;;;;;;;;;;10.90;56.60;;;;;;5049190;28;19921;-62
2022/03/25 04:37:28;;;;;;;;;;;10.80;56.20;;;;;;5050104;28;20414;-63
2022/03/25 04:39:54;;;;;;;;;;;10.80;56.10;;;;;;5048215;28;19976;-64
2022/03/25 04:42:20;;;;;;;;;;;10.80;56.60;;;;;;5048227;28;19913;-64
2022/03/25 04:44:45;;;;;;;;;;;10.80;56.30;;;;;;5047632;28;19927;-64
2022/03/25 04:47:10;;;;;;;;;;;10.80;56.40;;;;;;5048845;28;19960;-64
2022/03/25 04:49:36;;;;;;;;;;;10.70;57.10;;;;;;5049810;28;19916;-64
2022/03/25 04:52:03;;;;;;;;;;;10.70;56.50;;;;;;5047795;28;19912;-60
2022/03/25 04:54:28;;;;;;;;;;;10.80;56.90;;;;;;5048054;28;19955;-63
2022/03/25 04:56:54;;;;;;;;;;;10.80;57.00;;;;;;5047706;28;19944;-63
2022/03/25 04:59:19;;;;;;;;;;;10.70;56.80;;;;;;5047830;28;20337;-63
2022/03/25 05:01:45;;;;;;;;;;;10.70;57.10;;;;;;5050855;28;19913;-60
2022/03/25 05:04:10;;;;;;;;;;;10.70;56.80;;;;;;5047926;28;19921;-64
2022/03/25 05:06:36;;;;;;;;;;;10.70;57.10;;;;;;5049347;28;19940;-64
2022/03/25 05:09:01;;;;;;;;;;;10.70;57.50;;;;;;5047578;28;19913;-63
2022/03/25 05:11:27;;;;;;;;;;;10.70;57.60;;;;;;5047562;28;19959;-61
2022/03/25 05:13:52;;;;;;;;;;;10.70;57.40;;;;;;5049519;28;19909;-63
2022/03/25 05:16:18;;;;;;;;;;;10.60;57.40;;;;;;5048927;28;20008;-63
2022/03/25 05:18:43;;;;;;;;;;;10.60;57.60;;;;;;5047377;28;19913;-62
2022/03/25 05:21:09;;;;;;;;;;;10.70;58.30;;;;;;5047469;28;19960;-63
2022/03/25 05:23:35;;;;;;;;;;;10.70;58.00;;;;;;5047435;28;19913;-63
2022/03/25 05:26:01;;;;;;;;;;;10.50;58.40;;;;;;5049291;28;20344;-64
2022/03/25 05:28:26;;;;;;;;;;;10.50;58.00;;;;;;5048530;28;19972;-63
2022/03/25 05:30:52;;;;;;;;;;;10.50;58.80;;;;;;5047496;28;19913;-61
2022/03/25 05:33:18;;;;;;;;;;;10.40;58.50;;;;;;5047289;28;19944;-64
2022/03/25 05:35:43;;;;;;;;;;;10.40;59.40;;;;;;5047500;28;19966;-63
2022/03/25 05:38:09;;;;;;;;;;;10.40;59.70;;;;;;5048594;28;20008;-62
2022/03/25 05:40:34;;;;;;;;;;;10.40;58.90;;;;;;5050011;28;20281;-63
2022/03/25 05:43:00;;;;;;;;;;;10.40;58.70;;;;;;5046784;28;20332;-63
2022/03/25 05:45:26;;;;;;;;;;;10.40;58.40;;;;;;5047910;28;20385;-64
2022/03/25 05:47:52;;;;;;;;;;;10.40;58.80;;;;;;5048805;28;19924;-64
2022/03/25 05:50:18;;;;;;;;;;;10.40;59.00;;;;;;5047362;28;19916;-63
2022/03/25 05:52:44;;;;;;;;;;;10.40;58.90;;;;;;5051111;28;20296;-63
2022/03/25 05:55:12;;;;;;;;;;;10.40;58.90;;;;;;5046864;28;20399;-64
2022/03/25 05:57:38;;;;;;;;;;;10.30;59.40;;;;;;5046847;28;20023;-61
2022/03/25 06:00:05;;;;;;;;;;;10.40;59.30;;;;;;5046984;28;20372;-63
2022/03/25 06:02:31;;;;;;;;;;;10.30;58.80;;;;;;5052624;28;20420;-61
2022/03/25 06:04:56;;;;;;;;;;;10.30;59.90;;;;;;5053289;28;19986;-63
2022/03/25 06:07:22;;;;;;;;;;;10.30;59.20;;;;;;5052011;28;20284;-63
2022/03/25 06:09:48;;;;;;;;;;;10.30;59.40;;;;;;5051596;28;19913;-63
2022/03/25 06:12:14;;;;;;;;;;;10.40;59.60;;;;;;5050460;28;19917;-63
2022/03/25 06:14:39;;;;;;;;;;;10.30;59.90;;;;;;5050825;28;20323;-61
2022/03/25 06:17:05;;;;;;;;;;;10.30;60.00;;;;;;5052633;28;19958;-64
2022/03/25 06:19:31;;;;;;;;;;;10.30;60.00;;;;;;5052748;28;19920;-63
2022/03/25 06:21:56;;;;;;;;;;;10.30;59.80;;;;;;5050881;28;19913;-63
2022/03/25 06:24:22;;;;;;;;;;;10.40;59.70;;;;;;5050556;28;19975;-62
2022/03/25 06:26:48;;;;;;;;;;;10.40;59.70;;;;;;5049839;28;19917;-64
2022/03/25 06:29:13;;;;;;;;;;;10.40;60.20;;;;;;5051059;28;19947;-61
2022/03/25 06:31:39;;;;;;;;;;;10.40;59.80;;;;;;5053830;28;20035;-64
2022/03/25 06:34:05;;;;;;;;;;;10.40;60.10;;;;;;5050358;28;19912;-59
2022/03/25 06:36:31;;;;;;;;;;;10.50;60.10;;;;;;5050547;28;19916;-61
2022/03/25 06:38:56;;;;;;;;;;;10.60;59.80;;;;;;5050616;28;19966;-62
2022/03/25 06:41:22;;;;;;;;;;;10.60;59.90;;;;;;5050143;28;19917;-62
2022/03/25 06:43:49;;;;;;;;;;;10.60;60.10;;;;;;5052964;28;19978;-62
2022/03/25 06:46:17;;;;;;;;;;;10.60;60.20;;;;;;5051142;28;19916;-62
2022/03/25 06:48:42;;;;;;;;;;;10.70;60.00;;;;;;5049923;28;19912;-60
2022/03/25 06:51:09;;;;;;;;;;;10.70;60.30;;;;;;5050325;28;19920;-62
2022/03/25 06:53:35;;;;;;;;;;;10.70;60.50;;;;;;5050061;28;19959;-63
2022/03/25 06:56:01;;;;;;;;;;;10.70;59.90;;;;;;5051731;28;19909;-64
2022/03/25 06:58:27;;;;;;;;;;;10.80;59.50;;;;;;5051316;28;19913;-63
2022/03/25 07:00:52;;;;;;;;;;;10.90;59.80;;;;;;5049702;28;19913;-62
2022/03/25 07:03:18;;;;;;;;;;;10.90;59.50;;;;;;5050692;28;19913;-60
2022/03/25 07:05:44;;;;;;;;;;;10.80;59.50;;;;;;5044035;28;19921;-60
2022/03/25 07:08:10;;;;;;;;;;;10.80;59.90;;;;;;5050476;28;19924;-61
2022/03/25 07:10:35;;;;;;;;;;;10.90;59.70;;;;;;5043056;28;19992;-60
2022/03/25 07:13:01;;;;;;;;;;;11.00;59.90;;;;;;5046998;28;20007;-60
2022/03/25 07:15:27;;;;;;;;;;;11.10;59.50;;;;;;5048669;28;19955;-61
2022/03/25 07:17:52;;;;;;;;;;;11.10;59.30;;;;;;5049671;28;19913;-60
2022/03/25 07:20:20;;;;;;;;;;;11.20;59.40;;;;;;5049333;28;19913;-59
2022/03/25 07:22:47;;;;;;;;;;;11.20;59.10;;;;;;5052192;28;19994;-58
2022/03/25 07:25:13;;;;;;;;;;;11.20;59.00;;;;;;5050706;28;19968;-59
2022/03/25 07:27:38;;;;;;;;;;;11.20;59.10;;;;;;5050628;28;20410;-57
2022/03/25 07:30:04;;;;;;;;;;;11.00;59.10;;;;;;5047753;28;20443;-58
2022/03/25 07:32:30;;;;;;;;;;;11.00;59.50;;;;;;5050937;28;20292;-57
2022/03/25 07:34:55;;;;;;;;;;;11.10;59.10;;;;;;5050938;28;19935;-59
2022/03/25 07:37:21;;;;;;;;;;;11.20;59.20;;;;;;5050382;28;19917;-58
2022/03/25 07:39:47;;;;;;;;;;;11.30;58.70;;;;;;5049314;28;19948;-57
2022/03/25 07:42:12;;;;;;;;;;;11.30;58.60;;;;;;5050071;28;20452;-59
2022/03/25 07:44:39;;;;;;;;;;;11.30;58.90;;;;;;5051111;28;20059;-59
2022/03/25 07:47:05;;;;;;;;;;;11.40;59.10;;;;;;5049387;28;19992;-60
2022/03/25 07:49:30;;;;;;;;;;;11.40;58.60;;;;;;5050908;28;19913;-59
2022/03/25 07:51:56;;;;;;;;;;;11.40;58.30;;;;;;5047042;28;19920;-59
2022/03/25 07:54:21;;;;;;;;;;;11.40;58.40;;;;;;5048866;28;19917;-59
2022/03/25 07:56:47;;;;;;;;;;;11.40;58.30;;;;;;5048481;28;19913;-58
2022/03/25 07:59:12;;;;;;;;;;;11.40;58.60;;;;;;5049406;28;19958;-59
2022/03/25 08:01:38;;;;;;;;;;;11.40;58.30;;;;;;5051622;28;19955;-59
2022/03/25 08:04:04;;;;;;;;;;;11.50;59.00;;;;;;5040011;28;19927;-58
2022/03/25 08:06:29;;;;;;;;;;;11.60;58.10;;;;;;5048313;28;19927;-60
2022/03/25 08:08:55;;;;;;;;;;;11.60;57.90;;;;;;5048766;28;19912;-59
2022/03/25 08:11:20;;;;;;;;;;;11.70;58.20;;;;;;5049815;28;19952;-58
2022/03/25 08:13:47;;;;;;;;;;;11.60;58.10;;;;;;5050102;28;20521;-60
2022/03/25 08:16:14;;;;;;;;;;;11.60;58.20;;;;;;5049617;28;19916;-59
2022/03/25 08:18:40;;;;;;;;;;;11.70;58.10;;;;;;5049341;28;20007;-60
2022/03/25 08:21:06;;;;;;;;;;;11.80;57.70;;;;;;5047910;28;20082;-59
2022/03/25 08:29:00;;;;;;;;;;;11.90;57.90;;;;;;5047361;28;20000;-59
2022/03/25 08:31:26;;;;;;;;;;;12.00;58.00;;;;;;5047452;28;20007;-59
2022/03/25 08:33:51;;;;;;;;;;;12.10;57.30;;;;;;5048684;28;20003;-60
2022/03/25 08:36:17;;;;;;;;;;;12.20;56.50;;;;;;5048455;28;19912;-59
2022/03/25 08:38:43;;;;;;;;;;;12.20;56.20;;;;;;5047950;28;20381;-59
2022/03/25 08:41:09;;;;;;;;;;;12.20;56.20;;;;;;5048562;28;19921;-59
2022/03/25 08:43:35;;;;;;;;;;;12.30;55.90;;;;;;5049351;28;20369;-61
2022/03/25 08:46:01;;;;;;;;;;;12.40;56.20;;;;;;5047629;28;19921;-59
2022/03/25 08:48:27;;;;;;;;;;;12.50;55.10;;;;;;5048717;28;20744;-59
2022/03/25 08:50:53;;;;;;;;;;;12.60;55.30;;;;;;5048637;28;19912;-60
2022/03/25 08:53:19;;;;;;;;;;;12.60;54.10;;;;;;5048269;28;19917;-59
2022/03/25 08:55:45;;;;;;;;;;;12.70;54.50;;;;;;5049479;28;19957;-61
2022/03/25 08:58:11;;;;;;;;;;;12.80;54.00;;;;;;5048100;28;19917;-60
2022/03/25 09:00:37;;;;;;;;;;;12.90;54.50;;;;;;5048822;28;19913;-60
2022/03/25 09:03:03;;;;;;;;;;;13.00;53.50;;;;;;5048111;28;19912;-59
2022/03/25 09:05:28;;;;;;;;;;;13.10;53.50;;;;;;5048330;28;20337;-59
2022/03/25 09:07:54;;;;;;;;;;;13.20;54.10;;;;;;5043138;28;20051;-60
2022/03/25 09:10:20;;;;;;;;;;;13.30;52.80;;;;;;5046882;28;19913;-60
2022/03/25 09:12:45;;;;;;;;;;;13.30;53.40;;;;;;5044792;28;19921;-60
2022/03/25 09:15:13;;;;;;;;;;;13.40;53.10;;;;;;5048003;28;19923;-59
2022/03/25 09:17:39;;;;;;;;;;;13.30;52.80;;;;;;5048055;28;19917;-60
2022/03/25 09:20:05;;;;;;;;;;;13.40;52.90;;;;;;5047872;28;19912;-59
2022/03/25 09:22:31;;;;;;;;;;;13.50;52.30;;;;;;5049165;28;20404;-62
2022/03/25 09:24:57;;;;;;;;;;;13.50;52.00;;;;;;5047489;28;19921;-60
2022/03/25 09:27:23;;;;;;;;;;;13.70;51.40;;;;;;5048261;28;19917;-60
2022/03/25 09:29:48;;;;;;;;;;;13.80;52.40;;;;;;5048491;28;19943;-61
2022/03/25 09:32:14;;;;;;;;;;;13.90;52.60;;;;;;5046416;28;19936;-61
2022/03/25 09:37:23;;;;;;;;;;;14.10;51.40;;;;;;5050787;28;19920;-61
2022/03/25 09:39:50;;;;;;;;;;;14.20;51.00;;;;;;5052429;28;19913;-61
2022/03/25 09:42:15;;;;;;;;;;;14.30;51.10;;;;;;5051542;28;20011;-60
2022/03/25 09:44:42;;;;;;;;;;;14.30;51.70;;;;;;5051418;28;20357;-61
2022/03/25 09:47:10;;;;;;;;;;;14.30;51.30;;;;;;5051693;28;19944;-60
2022/03/25 09:49:37;;;;;;;;;;;14.30;51.60;;;;;;5052185;28;19920;-61
2022/03/25 09:52:02;;;;;;;;;;;14.30;51.30;;;;;;5051404;28;19923;-61
2022/03/25 09:54:28;;;;;;;;;;;14.40;50.60;;;;;;5051756;28;19913;-60
2022/03/25 09:56:53;;;;;;;;;;;14.60;50.80;;;;;;5033391;28;20384;-59
2022/03/25 09:59:19;;;;;;;;;;;14.70;50.00;;;;;;5051490;28;19920;-60
2022/03/25 10:01:45;;;;;;;;;;;14.70;49.90;;;;;;5052411;28;19966;-59
2022/03/25 10:04:29;;;;;;;;;;;14.80;50.10;;;;;;5050241;28;19928;-60
2022/03/25 10:06:55;;;;;;;;;;;14.80;49.60;;;;;;5048761;28;19917;-61
2022/03/25 10:09:21;;;;;;;;;;;14.80;49.80;;;;;;5051643;28;19924;-61
2022/03/25 10:11:47;;;;;;;;;;;14.90;49.40;;;;;;5048253;28;19913;-60
2022/03/25 10:14:18;;;;;;;;;;;14.90;49.50;;;;;;5050794;28;20005;-60
2022/03/25 10:16:45;;;;;;;;;;;15.00;49.60;;;;;;5052494;28;19962;-61
2022/03/25 10:19:12;;;;;;;;;;;15.10;50.50;;;;;;5051091;28;19939;-61
2022/03/25 10:21:51;;;;;;;;;;;15.10;49.40;;;;;;5050794;28;19970;-62
2022/03/25 10:24:19;;;;;;;;;;;15.20;49.90;;;;;;5050940;28;19921;-60
2022/03/25 10:26:46;;;;;;;;;;;15.30;49.50;;;;;;5051112;28;19921;-61
2022/03/25 10:29:23;;;;;;;;;;;15.40;49.30;;;;;;5050796;28;19932;-62
2022/03/25 10:32:27;;;;;;;;;;;15.40;49.30;;;;;;5048233;28;20335;-60
2022/03/25 10:35:06;;;;;;;;;;;15.50;49.10;;;;;;4985947;28;19922;-60
2022/03/25 10:37:32;;;;;;;;;;;15.60;48.40;;;;;;4988404;28;20333;-61
2022/03/25 10:39:58;;;;;;;;;;;15.50;47.50;;;;;;4988262;28;19914;-60
2022/03/25 10:42:23;;;;;;;;;;;15.50;48.40;;;;;;4987737;28;20509;-60
2022/03/25 10:44:49;;;;;;;;;;;15.50;48.70;;;;;;4987694;28;20465;-61
2022/03/25 10:47:14;;;;;;;;;;;15.60;48.10;;;;;;4986927;28;20390;-61
2022/03/25 10:49:43;;;;;;;;;;;15.60;48.90;;;;;;4988679;28;19914;-60
2022/03/25 10:52:22;;;;;;;;;;;15.70;48.60;;;;;;4987239;28;19934;-60
2022/03/25 10:54:47;;;;;;;;;;;15.70;48.80;;;;;;4984449;28;20012;-60
2022/03/25 10:57:15;;;;;;;;;;;15.90;48.00;;;;;;4986633;28;20015;-60
2022/03/25 10:59:40;;;;;;;;;;;15.80;48.60;;;;;;4987334;28;19949;-59
2022/03/25 11:02:07;;;;;;;;;;;15.90;48.00;;;;;;4986611;28;20025;-59
2022/03/25 11:04:32;;;;;;;;;;;15.90;48.30;;;;;;4989362;28;19925;-62
2022/03/25 11:06:58;;;;;;;;;;;15.90;48.50;;;;;;4987672;28;20335;-61
2022/03/25 11:09:24;;;;;;;;;;;16.00;47.80;;;;;;5033601;28;19917;-59
2022/03/25 11:11:51;;;;;;;;;;;16.10;48.30;;;;;;5050661;28;19958;-60
2022/03/25 11:14:17;;;;;;;;;;;16.20;48.30;;;;;;5049290;28;19913;-60
2022/03/25 11:16:43;;;;;;;;;;;16.10;48.20;;;;;;5050889;28;19985;-60
2022/03/25 11:19:10;;;;;;;;;;;16.30;47.50;;;;;;5049712;28;19917;-60
2022/03/25 11:21:38;;;;;;;;;;;16.30;47.20;;;;;;5050368;28;20360;-61
2022/03/25 11:24:06;;;;;;;;;;;16.30;47.10;;;;;;5049549;28;19931;-61
2022/03/25 11:26:32;;;;;;;;;;;16.30;47.20;;;;;;5047974;28;20472;-60
2022/03/25 11:28:59;;;;;;;;;;;16.40;47.40;;;;;;5049723;28;19955;-59
2022/03/25 11:31:24;;;;;;;;;;;16.40;47.00;;;;;;5050011;28;20533;-63
2022/03/25 11:34:09;;;;;;;;;;;16.50;46.90;;;;;;5049947;28;19924;-63
2022/03/25 11:36:36;;;;;;;;;;;16.50;47.50;;;;;;5048296;28;19958;-64
2022/03/25 11:39:25;;;;;;;;;;;16.50;47.50;;;;;;5049235;28;19922;-64
2022/03/25 11:41:53;;;;;;;;;;;16.50;47.20;;;;;;5036585;28;19919;-64
2022/03/25 11:44:19;;;;;;;;;;;16.50;46.90;;;;;;5049508;28;19924;-62
2022/03/25 11:47:00;;;;;;;;;;;16.60;47.60;;;;;;5050160;28;20444;-62
2022/03/25 11:49:26;;;;;;;;;;;16.50;46.40;;;;;;5049828;28;19913;-64
2022/03/25 11:51:52;;;;;;;;;;;16.60;47.60;;;;;;5048824;28;20423;-62
2022/03/25 11:54:38;;;;;;;;;;;16.80;46.60;;;;;;5047211;28;19917;-61
2022/03/25 11:57:04;;;;;;;;;;;16.70;46.00;;;;;;5037067;28;19959;-61
2022/03/25 11:59:49;;;;;;;;;;;16.80;45.80;;;;;;5048621;28;19916;-61
2022/03/25 12:02:22;;;;;;;;;;;16.90;45.80;;;;;;5049157;28;19920;-61
2022/03/25 12:04:48;;;;;;;;;;;16.90;46.20;;;;;;5045931;28;19921;-63
2022/03/25 12:07:16;;;;;;;;;;;17.00;45.30;;;;;;5048499;28;19917;-61
2022/03/25 12:09:44;;;;;;;;;;;17.10;45.90;;;;;;5048918;28;19927;-61
2022/03/25 12:12:10;;;;;;;;;;;17.10;45.90;;;;;;5031087;28;20359;-62
2022/03/25 12:14:36;;;;;;;;;;;17.00;45.50;;;;;;5048932;28;20003;-60
2022/03/25 12:17:08;;;;;;;;;;;17.10;45.80;;;;;;5048951;28;19936;-61
2022/03/25 12:19:43;;;;;;;;;;;17.20;45.70;;;;;;5048721;28;19917;-60
2022/03/25 12:22:17;;;;;;;;;;;17.10;45.80;;;;;;5048151;28;19912;-62
2022/03/25 12:24:43;;;;;;;;;;;17.10;45.70;;;;;;5049004;28;19929;-61
2022/03/25 12:27:08;;;;;;;;;;;17.10;45.00;;;;;;5048505;28;19935;-59
2022/03/25 12:29:38;;;;;;;;;;;17.10;45.60;;;;;;5048372;28;20316;-62
2022/03/25 12:32:05;;;;;;;;;;;17.20;45.80;;;;;;5048562;28;19999;-61
2022/03/25 12:34:49;;;;;;;;;;;17.30;45.20;;;;;;5049086;28;19959;-61
2022/03/25 12:37:21;;;;;;;;;;;17.30;45.40;;;;;;5048192;28;19917;-62
2022/03/25 12:39:47;;;;;;;;;;;17.40;45.20;;;;;;5048869;28;19917;-60
2022/03/25 12:42:13;;;;;;;;;;;17.50;44.20;;;;;;5048694;28;19923;-60
2022/03/25 12:44:39;;;;;;;;;;;17.30;44.20;;;;;;5048370;28;19940;-61
2022/03/25 12:47:04;;;;;;;;;;;17.30;44.70;;;;;;5047732;28;19919;-60
2022/03/25 12:49:30;;;;;;;;;;;17.40;45.30;;;;;;5049374;28;20403;-60
2022/03/25 12:51:56;;;;;;;;;;;17.40;44.80;;;;;;5048076;28;19917;-60
2022/03/25 12:54:21;;;;;;;;;;;17.50;44.50;;;;;;5048508;28;19979;-60
2022/03/25 12:56:54;;;;;;;;;;;17.70;43.90;;;;;;5048783;28;19919;-61
2022/03/25 12:59:30;;;;;;;;;;;17.60;43.80;;;;;;5047827;28;19958;-60
2022/03/25 13:01:55;;;;;;;;;;;17.60;44.40;;;;;;5045736;28;19917;-61
2022/03/25 13:04:28;;;;;;;;;;;17.60;43.50;;;;;;5048960;28;20339;-60
2022/03/25 13:07:08;;;;;;;;;;;17.60;44.00;;;;;;5047909;28;19917;-60
2022/03/25 13:09:33;;;;;;;;;;;17.70;43.10;;;;;;5040724;28;19931;-59
2022/03/25 13:12:02;;;;;;;;;;;17.60;43.00;;;;;;5046876;28;19917;-63
2022/03/25 13:14:28;;;;;;;;;;;17.70;43.80;;;;;;5045855;28;19919;-61
2022/03/25 13:16:54;;;;;;;;;;;17.90;43.70;;;;;;5047499;28;19917;-59
2022/03/25 13:19:30;;;;;;;;;;;17.90;44.40;;;;;;5048896;28;19962;-59
2022/03/25 13:21:56;;;;;;;;;;;17.90;43.10;;;;;;5045539;28;19955;-61
2022/03/25 13:24:21;;;;;;;;;;;17.90;43.60;;;;;;5047878;28;19968;-60
2022/03/25 13:26:47;;;;;;;;;;;17.80;43.60;;;;;;5047772;28;19996;-63
2022/03/25 13:29:12;;;;;;;;;;;17.70;43.20;;;;;;5047405;28;20012;-64
2022/03/25 13:31:38;;;;;;;;;;;17.80;44.20;;;;;;5048875;28;19912;-63
2022/03/25 13:34:03;;;;;;;;;;;17.90;44.00;;;;;;5047796;28;20369;-61
2022/03/25 13:36:30;;;;;;;;;;;17.90;43.00;;;;;;5047889;28;19952;-60
2022/03/25 13:39:06;;;;;;;;;;;18.00;43.70;;;;;;5047996;28;19913;-59
2022/03/25 13:41:33;;;;;;;;;;;18.10;43.50;;;;;;5047563;28;19935;-62
2022/03/25 13:44:07;;;;;;;;;;;18.20;42.80;;;;;;5047875;28;20385;-61
2022/03/25 13:46:32;;;;;;;;;;;18.10;42.70;;;;;;5047232;28;19925;-63
2022/03/25 13:48:59;;;;;;;;;;;18.10;42.40;;;;;;5047851;28;19931;-62
2022/03/25 13:51:29;;;;;;;;;;;18.00;41.80;;;;;;5047324;28;19913;-63
2022/03/25 13:53:57;;;;;;;;;;;18.10;41.80;;;;;;5047735;28;20368;-61
2022/03/25 13:56:23;;;;;;;;;;;18.10;42.00;;;;;;5047599;28;19947;-61
2022/03/25 13:58:49;;;;;;;;;;;18.10;41.20;;;;;;5044270;28;20344;-62
2022/03/25 14:01:16;;;;;;;;;;;18.10;41.40;;;;;;5047990;28;19950;-61
2022/03/25 14:03:42;;;;;;;;;;;18.30;40.80;;;;;;5048279;28;19920;-60
2022/03/25 14:06:14;;;;;;;;;;;18.10;40.40;;;;;;5047188;28;19921;-59
2022/03/25 14:08:42;;;;;;;;;;;18.00;40.90;;;;;;5047144;28;20282;-60
2022/03/25 14:11:08;;;;;;;;;;;18.00;41.10;;;;;;5047491;28;19944;-59
2022/03/25 14:13:34;;;;;;;;;;;18.10;40.80;;;;;;5048761;28;19948;-61
2022/03/25 14:16:12;;;;;;;;;;;18.10;40.00;;;;;;5047300;28;19919;-62
2022/03/25 14:18:47;;;;;;;;;;;18.00;40.60;;;;;;5046432;28;19924;-61
2022/03/25 14:21:21;;;;;;;;;;;18.00;39.40;;;;;;5047330;28;19937;-63
2022/03/25 14:23:47;;;;;;;;;;;18.00;39.10;;;;;;5051084;28;19995;-63
2022/03/25 14:26:12;;;;;;;;;;;18.00;40.00;;;;;;5050883;28;20071;-59